Terminal Aerodrome Forecast
Issued by NWS Twin Cities, MN

Home | Current Version | Previous Version | Graphics & Text | Print | Product List | Glossary On
Versions: 1 2 3 4 5 6 7 8 9 10 11 12 13 14 15 16
000
FTUS43 KMPX 281740
TAFSTC
TAF
KSTC 281740Z 2818/2918 VRB04KT 6SM -SHRA OVC010
     FM282000 VRB05KT 6SM -SHRA OVC015
      TEMPO 2822/2902 4SM SHRA OVC014
     FM290200 30005KT 5SM -SHRA OVC015
      TEMPO 2902/2906 4SM SHRA OVC012
     FM290600 28007KT P6SM VCSH OVC010
     FM291400 28009KT P6SM OVC016=

USA.gov is the U.S. government's official web portal to all federal, state and local government web resources and services.